Time;durP1;ratioP1;P1;durP2;ratioP2;P2;SDS_P1;SDS_P2;PMS_P1;PMS_P2;Temp;Humidity;BMP_temperature;BMP_pressure;BME280_temperature;BME280_humidity;BME280_pressure;Samples;Min_cycle;Max_cycle;Signal;HPM_P1;HPM_P2
2022/06/16 00:00:14;;;;;;;7.30;3.97;;;15.10;99.90;;;;;;4992822;28;20038;-59
2022/06/16 00:02:45;;;;;;;6.88;3.85;;;15.10;99.90;;;;;;4999812;28;20473;-57
2022/06/16 00:05:13;;;;;;;7.60;3.60;;;15.10;99.90;;;;;;4994684;28;20404;-56
2022/06/16 00:07:40;;;;;;;6.85;3.78;;;15.10;99.90;;;;;;4981115;28;20231;-58
2022/06/16 00:10:08;;;;;;;5.20;3.25;;;15.10;99.90;;;;;;4987423;28;20038;-58
2022/06/16 00:12:35;;;;;;;5.15;2.95;;;15.10;99.90;;;;;;5003061;28;20072;-59
2022/06/16 00:15:00;;;;;;;7.30;3.50;;;15.10;99.90;;;;;;4989916;28;20069;-57
2022/06/16 00:17:26;;;;;;;5.05;4.00;;;15.10;99.90;;;;;;4974535;28;20180;-59
2022/06/16 00:19:52;;;;;;;7.40;4.05;;;15.10;99.90;;;;;;4997367;28;20054;-59
2022/06/16 00:22:18;;;;;;;9.35;4.80;;;15.00;99.90;;;;;;5009405;22;20050;-57
2022/06/16 00:24:44;;;;;;;7.93;4.05;;;15.00;99.90;;;;;;4996843;28;20504;-59
2022/06/16 00:27:10;;;;;;;8.55;4.22;;;15.00;99.90;;;;;;4996907;28;20091;-59
2022/06/16 00:29:36;;;;;;;8.30;3.83;;;15.00;99.90;;;;;;4997459;28;20038;-59
2022/06/16 00:32:02;;;;;;;6.85;3.95;;;15.00;99.90;;;;;;4996792;28;20113;-57
2022/06/16 00:34:28;;;;;;;8.52;4.00;;;15.00;99.90;;;;;;4990757;28;20053;-58
2022/06/16 00:36:54;;;;;;;6.20;3.22;;;15.00;99.90;;;;;;4992167;28;20048;-58
2022/06/16 00:39:20;;;;;;;8.10;3.45;;;15.00;99.90;;;;;;4997259;28;20049;-57
2022/06/16 00:41:46;;;;;;;5.47;3.67;;;15.00;99.90;;;;;;4992669;28;20045;-59
2022/06/16 00:44:14;;;;;;;4.15;2.83;;;15.00;99.90;;;;;;4996236;28;20050;-60
2022/06/16 00:46:40;;;;;;;7.47;3.80;;;15.00;99.90;;;;;;4996531;28;20045;-57
2022/06/16 00:49:08;;;;;;;7.28;3.53;;;14.90;99.90;;;;;;4993525;28;20623;-59
2022/06/16 00:51:44;;;;;;;7.75;3.97;;;14.90;99.90;;;;;;4993596;28;20397;-59
2022/06/16 00:54:24;;;;;;;7.72;3.65;;;15.00;99.90;;;;;;4989036;28;20053;-57
2022/06/16 00:56:52;;;;;;;5.82;4.28;;;14.90;99.90;;;;;;5009861;28;20068;-59
2022/06/16 00:59:23;;;;;;;6.57;3.50;;;14.90;99.90;;;;;;4990543;28;20068;-59
2022/06/16 01:01:49;;;;;;;7.93;3.35;;;14.80;99.90;;;;;;5010707;28;20046;-58
2022/06/16 01:07:04;;;;;;;6.90;3.00;;;14.80;99.90;;;;;;4996137;28;20038;-61
2022/06/16 01:09:33;;;;;;;6.07;3.03;;;14.80;99.90;;;;;;4992192;28;20085;-61
2022/06/16 01:15:13;;;;;;;6.43;2.80;;;14.80;99.90;;;;;;4992959;28;20088;-60
2022/06/16 01:17:38;;;;;;;7.72;3.25;;;14.80;99.90;;;;;;4997651;28;20047;-60
2022/06/16 01:20:38;;;;;;;4.25;2.33;;;14.80;99.90;;;;;;4994895;28;20108;-62
2022/06/16 01:23:22;;;;;;;5.43;3.22;;;14.80;99.90;;;;;;4988443;28;20080;-61
2022/06/16 01:26:25;;;;;;;6.28;2.90;;;14.80;99.90;;;;;;4996891;28;20104;-61
2022/06/16 01:29:12;;;;;;;5.18;2.55;;;14.90;99.90;;;;;;4993534;28;20038;-62
2022/06/16 01:31:41;;;;;;;4.78;2.72;;;14.90;99.90;;;;;;4990494;28;20049;-61
2022/06/16 01:34:38;;;;;;;5.25;2.78;;;14.80;99.90;;;;;;4996243;28;20556;-61
2022/06/16 01:37:16;;;;;;;4.45;2.80;;;14.80;99.90;;;;;;5000779;28;20049;-61
2022/06/16 01:40:12;;;;;;;4.65;2.47;;;14.80;99.90;;;;;;5001140;28;20041;-58
2022/06/16 01:42:45;;;;;;;7.18;2.72;;;14.70;99.90;;;;;;4996008;28;20555;-62
2022/06/16 01:45:23;;;;;;;5.00;2.42;;;14.70;99.90;;;;;;4999442;28;20567;-62
2022/06/16 01:47:50;;;;;;;5.38;2.80;;;14.70;99.90;;;;;;5004397;28;20117;-62
2022/06/16 01:50:27;;;;;;;4.35;2.70;;;14.70;99.90;;;;;;5000402;28;20385;-60
2022/06/16 01:53:12;;;;;;;5.60;2.35;;;14.80;99.90;;;;;;4999624;28;20037;-60
2022/06/16 01:55:49;;;;;;;5.13;2.50;;;14.70;99.90;;;;;;4999378;28;20045;-62
2022/06/16 01:58:22;;;;;;;6.60;2.60;;;14.70;99.90;;;;;;4996866;28;20406;-59
2022/06/16 02:00:51;;;;;;;4.85;2.08;;;14.70;99.90;;;;;;4995797;28;20627;-61
2022/06/16 02:03:23;;;;;;;7.45;2.92;;;14.70;99.90;;;;;;5004004;28;20249;-62
2022/06/16 02:05:51;;;;;;;5.65;2.70;;;14.70;99.90;;;;;;4996167;28;20160;-59
2022/06/16 02:08:28;;;;;;;4.55;2.20;;;14.60;99.90;;;;;;4995223;28;20041;-61
2022/06/16 02:11:12;;;;;;;5.45;2.50;;;14.70;99.90;;;;;;4992957;28;20050;-61
2022/06/16 02:13:44;;;;;;;3.42;2.40;;;14.70;99.90;;;;;;4996534;28;20434;-61
2022/06/16 02:16:21;;;;;;;6.43;3.22;;;14.60;99.90;;;;;;4978809;28;20042;-61
2022/06/16 02:18:51;;;;;;;5.93;2.97;;;14.60;99.90;;;;;;4999913;28;20038;-61
2022/06/16 02:21:23;;;;;;;5.50;3.08;;;14.60;99.90;;;;;;4997108;28;20048;-61
2022/06/16 02:23:49;;;;;;;4.93;2.83;;;14.60;99.90;;;;;;5002662;28;20058;-61
2022/06/16 02:26:15;;;;;;;8.10;3.22;;;14.50;99.90;;;;;;4999527;28;20037;-58
2022/06/16 02:28:48;;;;;;;5.70;3.25;;;14.50;99.90;;;;;;5000604;28;20045;-61
2022/06/16 02:31:51;;;;;;;5.78;2.72;;;14.50;99.90;;;;;;4997678;28;20069;-59
2022/06/16 02:34:22;;;;;;;5.07;2.63;;;14.50;99.90;;;;;;5003641;28;20049;-61
2022/06/16 02:36:57;;;;;;;6.20;3.17;;;14.40;99.90;;;;;;4997706;28;20045;-59
2022/06/16 02:39:41;;;;;;;5.88;2.95;;;14.40;99.90;;;;;;4997476;28;20428;-61
2022/06/16 02:42:37;;;;;;;5.72;2.83;;;14.40;99.90;;;;;;4999792;28;20136;-60
2022/06/16 02:45:09;;;;;;;6.05;2.72;;;14.40;99.90;;;;;;4986015;28;20061;-62
2022/06/16 02:48:05;;;;;;;5.72;3.00;;;14.30;99.90;;;;;;4996140;28;20046;-61
2022/06/16 02:51:11;;;;;;;4.82;2.78;;;14.30;99.90;;;;;;4994507;28;20093;-58
2022/06/16 02:53:50;;;;;;;6.68;2.80;;;14.30;99.90;;;;;;5000250;28;20073;-61
2022/06/16 02:56:49;;;;;;;5.88;2.60;;;14.20;99.90;;;;;;5001072;28;20404;-62
2022/06/16 02:59:22;;;;;;;5.07;3.15;;;14.20;99.90;;;;;;4990928;28;20050;-60
2022/06/16 03:01:50;;;;;;;4.88;2.45;;;14.20;99.90;;;;;;4999968;28;20049;-61
2022/06/16 03:04:17;;;;;;;5.93;2.38;;;14.10;99.90;;;;;;4993235;28;20045;-61
2022/06/16 03:06:44;;;;;;;7.60;3.03;;;14.10;99.90;;;;;;5000150;28;20201;-59
2022/06/16 03:09:12;;;;;;;6.07;2.97;;;14.00;99.90;;;;;;4994862;28;20050;-62
2022/06/16 03:11:38;;;;;;;6.75;3.50;;;14.00;99.90;;;;;;4991387;28;20038;-58
2022/06/16 03:14:04;;;;;;;5.10;3.35;;;14.00;99.90;;;;;;5006087;28;20050;-60
2022/06/16 03:16:31;;;;;;;7.30;3.17;;;13.90;99.90;;;;;;4995819;28;20449;-61
2022/06/16 03:18:57;;;;;;;8.00;3.78;;;13.90;99.90;;;;;;4991717;28;20413;-62
2022/06/16 03:21:23;;;;;;;6.72;3.55;;;13.90;99.90;;;;;;4990265;28;20046;-61
2022/06/16 03:23:49;;;;;;;7.63;3.83;;;13.90;99.90;;;;;;4995588;28;20037;-59
2022/06/16 03:26:15;;;;;;;5.00;3.17;;;13.90;99.90;;;;;;4990246;28;20034;-58
2022/06/16 03:28:41;;;;;;;4.80;3.13;;;13.90;99.90;;;;;;4994341;28;20042;-62
2022/06/16 03:31:07;;;;;;;7.38;3.75;;;13.90;99.90;;;;;;4997422;28;20038;-62
2022/06/16 03:33:32;;;;;;;5.68;3.28;;;14.00;99.90;;;;;;4997710;28;20121;-62
2022/06/16 03:35:59;;;;;;;6.22;3.30;;;14.00;99.90;;;;;;4995852;28;20030;-57
2022/06/16 03:40:56;;;;;;;6.40;3.30;;;14.00;99.90;;;;;;4994924;28;20485;-59
2022/06/16 03:43:25;;;;;;;4.25;2.78;;;14.00;99.90;;;;;;4995011;28;20050;-58
2022/06/16 03:45:51;;;;;;;6.30;3.03;;;14.00;99.90;;;;;;5009616;28;20125;-56
2022/06/16 03:48:17;;;;;;;5.10;3.00;;;14.00;99.90;;;;;;4997979;28;20088;-58
2022/06/16 03:50:43;;;;;;;8.02;3.30;;;14.00;99.90;;;;;;4994499;28;20879;-59
2022/06/16 03:53:09;;;;;;;5.55;3.20;;;14.10;99.90;;;;;;4998983;28;20068;-60
2022/06/16 03:55:35;;;;;;;8.30;3.45;;;14.10;99.90;;;;;;4976152;28;20921;-59
2022/06/16 03:58:00;;;;;;;6.13;2.97;;;14.10;99.90;;;;;;4994536;28;20676;-57
2022/06/16 04:00:26;;;;;;;6.90;3.63;;;14.10;99.90;;;;;;4996495;28;20073;-60
2022/06/16 04:03:59;;;;;;;4.65;3.08;;;14.10;99.90;;;;;;4995958;28;20091;-59
2022/06/16 04:05:39;;;;;;;7.28;3.53;;;14.10;99.90;;;;;;4997090;28;20061;-59
2022/06/16 04:08:06;;;;;;;6.53;3.10;;;14.10;99.90;;;;;;4991855;28;20038;-57
2022/06/16 04:10:32;;;;;;;6.53;2.80;;;14.10;99.90;;;;;;4991024;28;20136;-58
2022/06/16 04:12:58;;;;;;;8.18;3.20;;;14.20;99.90;;;;;;4995188;28;20132;-56
2022/06/16 04:15:23;;;;;;;4.50;3.50;;;14.30;99.90;;;;;;4993869;28;20080;-58
2022/06/16 04:17:49;;;;;;;5.20;3.03;;;14.30;99.90;;;;;;4991307;28;20052;-60
2022/06/16 04:20:15;;;;;;;4.70;3.42;;;14.30;99.90;;;;;;4989359;28;20133;-57
2022/06/16 04:22:42;;;;;;;7.03;4.28;;;14.30;99.90;;;;;;4992705;28;20057;-57
2022/06/16 04:25:15;;;;;;;5.53;3.60;;;14.40;99.90;;;;;;4993987;28;20064;-60
2022/06/16 04:27:42;;;;;;;6.60;3.60;;;14.40;99.90;;;;;;4994578;28;20042;-58
2022/06/16 04:30:09;;;;;;;6.55;3.00;;;14.40;99.90;;;;;;4993420;28;20072;-60
2022/06/16 04:32:34;;;;;;;5.53;2.95;;;14.50;99.90;;;;;;4995786;28;20029;-59
2022/06/16 04:35:00;;;;;;;4.75;3.30;;;14.60;99.90;;;;;;4991083;28;20048;-59
2022/06/16 04:37:26;;;;;;;4.18;3.08;;;14.60;99.90;;;;;;4990286;28;20049;-57
2022/06/16 04:39:52;;;;;;;6.10;2.95;;;14.60;99.90;;;;;;4986764;28;20049;-57
2022/06/16 04:42:17;;;;;;;4.68;2.75;;;14.60;99.90;;;;;;4990328;28;20054;-57
2022/06/16 04:44:44;;;;;;;3.90;2.25;;;14.60;99.90;;;;;;4993321;28;20148;-57
2022/06/16 04:47:10;;;;;;;5.15;3.40;;;14.70;99.90;;;;;;4991228;28;20935;-59
2022/06/16 04:49:37;;;;;;;9.95;3.00;;;14.70;99.90;;;;;;4993648;28;20034;-61
2022/06/16 04:52:05;;;;;;;7.05;3.22;;;14.70;99.90;;;;;;4996368;28;20045;-59
2022/06/16 04:54:31;;;;;;;5.15;2.85;;;14.80;99.90;;;;;;4999069;28;20553;-61
2022/06/16 04:56:57;;;;;;;6.43;3.40;;;14.70;99.90;;;;;;4995063;28;20065;-61
2022/06/16 04:59:22;;;;;;;9.15;3.65;;;14.80;99.90;;;;;;4992081;28;20782;-61
2022/06/16 05:01:48;;;;;;;4.78;2.83;;;14.80;99.90;;;;;;4982493;28;20049;-62
2022/06/16 05:04:14;;;;;;;7.20;3.78;;;14.90;99.90;;;;;;4998865;28;20342;-60
2022/06/16 05:06:40;;;;;;;5.15;3.33;;;14.90;99.90;;;;;;4994851;28;20038;-59
2022/06/16 05:09:06;;;;;;;5.47;3.22;;;14.90;99.90;;;;;;4994608;28;20042;-59
2022/06/16 05:11:31;;;;;;;8.43;4.43;;;14.90;99.90;;;;;;4992251;28;20037;-62
2022/06/16 05:14:00;;;;;;;7.30;4.32;;;14.90;99.90;;;;;;4994121;28;20039;-61
2022/06/16 05:16:27;;;;;;;10.38;4.18;;;15.00;99.90;;;;;;4999301;28;20036;-61
2022/06/16 05:18:54;;;;;;;8.82;4.78;;;15.00;99.90;;;;;;5004396;28;20397;-62
2022/06/16 05:21:20;;;;;;;6.25;3.22;;;15.00;99.90;;;;;;4999367;28;22420;-60
2022/06/16 05:23:46;;;;;;;4.57;2.80;;;15.10;99.90;;;;;;4994503;28;20281;-62
2022/06/16 05:26:12;;;;;;;6.55;3.28;;;15.20;99.90;;;;;;4998616;28;20037;-61
2022/06/16 05:28:38;;;;;;;7.13;3.25;;;15.30;99.90;;;;;;4997196;28;20093;-61
2022/06/16 05:31:04;;;;;;;5.82;3.10;;;15.40;99.90;;;;;;4998246;28;20034;-62
2022/06/16 05:33:30;;;;;;;3.58;2.55;;;15.50;99.90;;;;;;5003441;28;20419;-62
2022/06/16 05:35:58;;;;;;;8.18;3.05;;;15.50;99.90;;;;;;4999269;28;20042;-62
2022/06/16 05:38:24;;;;;;;8.18;3.17;;;15.60;99.90;;;;;;4996952;28;20042;-61
2022/06/16 05:41:06;;;;;;;5.70;2.78;;;15.70;99.90;;;;;;4998510;28;20038;-61
2022/06/16 05:43:33;;;;;;;6.35;3.17;;;15.80;99.90;;;;;;4997219;28;20034;-62
2022/06/16 05:45:59;;;;;;;7.05;3.08;;;15.90;99.90;;;;;;4999763;28;20041;-62
2022/06/16 05:48:25;;;;;;;5.95;2.40;;;15.90;99.90;;;;;;5000146;28;20041;-62
2022/06/16 05:50:51;;;;;;;6.78;2.92;;;16.00;99.90;;;;;;4992357;28;20038;-59
2022/06/16 05:53:18;;;;;;;9.95;2.97;;;16.10;99.90;;;;;;4986652;28;20346;-62
2022/06/16 05:55:44;;;;;;;6.40;2.67;;;16.10;99.90;;;;;;4991636;28;20046;-60
2022/06/16 05:58:10;;;;;;;7.13;2.50;;;16.20;99.90;;;;;;4989788;28;20037;-59
2022/06/16 06:00:35;;;;;;;7.13;3.13;;;16.30;99.90;;;;;;4991892;28;20037;-61
2022/06/16 06:03:01;;;;;;;6.45;2.83;;;16.30;99.90;;;;;;4999481;28;20401;-58
2022/06/16 06:05:28;;;;;;;7.43;3.03;;;16.40;99.90;;;;;;4999829;28;20413;-59
2022/06/16 06:19:31;;;;;;;7.78;2.95;;;16.70;99.90;;;;;;4972472;28;20057;-57
2022/06/16 06:22:02;;;;;;;3.50;2.22;;;16.70;99.90;;;;;;5009563;23;20084;-57
2022/06/16 06:24:33;;;;;;;3.45;1.85;;;16.80;99.90;;;;;;5013486;28;20053;-58
2022/06/16 06:27:02;;;;;;;5.07;2.42;;;16.90;99.90;;;;;;5004457;28;20053;-55
2022/06/16 06:29:28;;;;;;;3.58;2.00;;;17.00;99.90;;;;;;5009260;28;20046;-56
2022/06/16 06:31:54;;;;;;;5.75;2.22;;;16.90;99.90;;;;;;4986733;28;20155;-58
2022/06/16 06:34:20;;;;;;;4.68;2.25;;;17.10;99.90;;;;;;4982670;28;20069;-57
2022/06/16 06:36:47;;;;;;;3.80;2.17;;;17.10;99.90;;;;;;4981207;28;20396;-56
2022/06/16 06:39:13;;;;;;;5.72;1.80;;;17.20;99.90;;;;;;4967215;28;20038;-57
2022/06/16 06:41:39;;;;;;;5.15;1.85;;;17.30;99.90;;;;;;4998336;28;20077;-56
2022/06/16 06:44:04;;;;;;;5.93;1.92;;;17.40;99.90;;;;;;4975861;28;20951;-57
2022/06/16 06:46:30;;;;;;;6.40;1.65;;;17.40;99.90;;;;;;4984395;28;20050;-58
2022/06/16 06:48:56;;;;;;;4.05;1.73;;;17.60;99.90;;;;;;4985420;28;20370;-58
2022/06/16 06:51:22;;;;;;;6.07;2.10;;;17.60;99.90;;;;;;4993991;28;21054;-57
2022/06/16 06:53:47;;;;;;;4.57;2.15;;;17.60;99.90;;;;;;4983111;28;20064;-58
2022/06/16 06:56:14;;;;;;;4.18;1.77;;;17.70;99.90;;;;;;4981604;28;20069;-58
2022/06/16 06:58:40;;;;;;;7.18;1.90;;;17.70;99.90;;;;;;4982082;28;20124;-57
2022/06/16 07:01:06;;;;;;;4.88;1.80;;;17.80;99.90;;;;;;4978023;28;20409;-57
2022/06/16 07:03:33;;;;;;;6.60;2.15;;;17.90;99.90;;;;;;4972098;28;20077;-57
2022/06/16 07:06:03;;;;;;;4.13;1.90;;;17.90;99.90;;;;;;4980247;28;20076;-58
2022/06/16 07:08:30;;;;;;;5.25;1.83;;;17.90;99.90;;;;;;4961579;28;20057;-58
2022/06/16 07:10:56;;;;;;;4.60;2.20;;;18.00;99.90;;;;;;5011766;28;20041;-57
2022/06/16 07:13:23;;;;;;;6.07;2.50;;;18.00;99.90;;;;;;4988592;28;20492;-58
2022/06/16 07:15:49;;;;;;;7.15;2.50;;;18.10;99.90;;;;;;4977346;28;20049;-57
2022/06/16 07:18:15;;;;;;;6.32;2.30;;;18.20;99.90;;;;;;4976860;28;20041;-57
2022/06/16 07:20:41;;;;;;;3.88;1.90;;;18.30;99.90;;;;;;4982555;28;20100;-57
2022/06/16 07:23:06;;;;;;;3.60;2.00;;;18.40;99.90;;;;;;4980126;28;20044;-56
2022/06/16 07:25:32;;;;;;;4.95;1.60;;;18.50;99.90;;;;;;4993590;28;20045;-57
2022/06/16 07:27:58;;;;;;;5.65;2.60;;;18.50;99.90;;;;;;4995681;28;20073;-57
2022/06/16 07:30:25;;;;;;;3.80;1.67;;;18.60;99.90;;;;;;5004049;28;20034;-57
2022/06/16 07:32:51;;;;;;;6.22;2.08;;;18.70;99.90;;;;;;5008107;28;20050;-57
2022/06/16 07:35:21;;;;;;;4.57;1.80;;;18.80;99.90;;;;;;4992597;28;20055;-57
2022/06/16 07:37:47;;;;;;;5.10;2.20;;;18.90;99.90;;;;;;4984741;28;20501;-57
2022/06/16 07:40:16;;;;;;;4.70;1.67;;;18.90;99.90;;;;;;5009309;28;20353;-57
2022/06/16 07:42:41;;;;;;;3.78;2.22;;;19.00;99.70;;;;;;4981298;28;20105;-55
2022/06/16 07:45:08;;;;;;;3.70;1.95;;;19.20;99.40;;;;;;4992090;28;20159;-57
2022/06/16 07:47:34;;;;;;;4.25;2.10;;;19.20;99.20;;;;;;4996726;28;20512;-57
2022/06/16 07:50:01;;;;;;;7.15;2.22;;;19.30;99.00;;;;;;4985832;28;20072;-57
2022/06/16 07:52:29;;;;;;;5.13;2.20;;;19.40;98.40;;;;;;4979570;28;20217;-56
2022/06/16 07:54:54;;;;;;;9.60;2.25;;;19.40;98.30;;;;;;4993585;28;20061;-58
2022/06/16 07:57:21;;;;;;;4.05;2.00;;;19.50;98.00;;;;;;4986584;28;20045;-57
2022/06/16 07:59:50;;;;;;;4.40;2.25;;;19.60;98.00;;;;;;4995371;28;20042;-56
2022/06/16 08:02:16;;;;;;;6.90;2.35;;;19.60;97.70;;;;;;4993744;28;20046;-57
2022/06/16 08:04:41;;;;;;;4.70;2.33;;;19.70;97.50;;;;;;4992112;28;20038;-57
2022/06/16 08:07:07;;;;;;;7.40;3.13;;;19.60;97.50;;;;;;4976397;28;20069;-55
2022/06/16 08:09:36;;;;;;;6.35;2.42;;;19.80;98.40;;;;;;4993959;28;20045;-57
2022/06/16 08:12:07;;;;;;;3.83;2.30;;;19.90;98.10;;;;;;4989367;28;20076;-57
2022/06/16 08:14:44;;;;;;;5.50;2.03;;;20.00;98.40;;;;;;4968566;28;20065;-56
2022/06/16 08:17:15;;;;;;;3.60;2.13;;;20.00;98.00;;;;;;4992762;28;20050;-56
2022/06/16 08:19:40;;;;;;;7.35;2.92;;;20.00;97.80;;;;;;4982493;28;20156;-56
2022/06/16 08:22:06;;;;;;;7.00;3.05;;;19.90;97.90;;;;;;4978292;28;20136;-57
2022/06/16 08:24:32;;;;;;;7.88;2.58;;;19.90;97.70;;;;;;4977853;28;20053;-54
2022/06/16 08:27:00;;;;;;;4.78;2.35;;;19.80;97.90;;;;;;4979604;28;20041;-57
2022/06/16 08:29:26;;;;;;;3.85;1.98;;;19.80;98.20;;;;;;4979708;28;20300;-57
2022/06/16 08:31:55;;;;;;;8.65;2.60;;;19.80;98.20;;;;;;4982938;28;21119;-57
2022/06/16 08:34:21;;;;;;;60.85;54.42;;;19.80;98.10;;;;;;4982262;28;20045;-55
2022/06/16 08:36:46;;;;;;;14.60;5.45;;;19.90;97.90;;;;;;4981264;28;20049;-57
2022/06/16 08:39:12;;;;;;;148.55;44.67;;;20.00;97.60;;;;;;4996159;28;20080;-56
2022/06/16 08:41:47;;;;;;;9.57;3.85;;;20.20;97.90;;;;;;4992131;28;20104;-57
2022/06/16 08:44:36;;;;;;;4.50;2.20;;;20.50;97.80;;;;;;4985125;28;20284;-56
2022/06/16 08:47:17;;;;;;;6.32;2.60;;;20.60;97.20;;;;;;4977352;28;20061;-57
2022/06/16 08:49:54;;;;;;;4.80;2.70;;;20.60;96.80;;;;;;4980895;28;20038;-57
2022/06/16 08:52:49;;;;;;;6.75;2.60;;;20.50;96.80;;;;;;4980839;28;20046;-57
2022/06/16 08:55:35;;;;;;;6.82;3.50;;;20.50;96.00;;;;;;4972472;28;21769;-56
2022/06/16 08:58:15;;;;;;;5.40;2.58;;;20.50;95.50;;;;;;4985042;28;20042;-58
2022/06/16 09:00:54;;;;;;;7.43;3.15;;;20.50;95.60;;;;;;4995037;28;20046;-57
2022/06/16 09:03:32;;;;;;;6.70;3.13;;;20.60;95.60;;;;;;4995542;28;20036;-56
2022/06/16 09:06:20;;;;;;;7.80;2.85;;;20.80;95.60;;;;;;4984307;28;20595;-58
2022/06/16 09:08:58;;;;;;;4.75;2.50;;;21.00;94.80;;;;;;4995849;28;20036;-58
2022/06/16 09:11:48;;;;;;;8.75;3.33;;;21.00;95.20;;;;;;4992245;28;20035;-56
2022/06/16 09:17:32;;;;;;;5.72;2.65;;;21.30;94.50;;;;;;4992421;28;20058;-58
2022/06/16 09:19:58;;;;;;;8.93;3.03;;;21.40;93.80;;;;;;4988948;28;20497;-58
2022/06/16 09:22:58;;;;;;;7.55;3.03;;;21.50;93.40;;;;;;4992113;28;20073;-58
2022/06/16 09:25:34;;;;;;;5.28;2.30;;;21.50;91.90;;;;;;4992332;28;20042;-57
2022/06/16 09:28:28;;;;;;;3.63;2.85;;;21.60;92.90;;;;;;4988050;28;20038;-58
2022/06/16 09:30:57;;;;;;;4.20;2.88;;;21.50;92.60;;;;;;4976127;28;20050;-57
2022/06/16 09:33:39;;;;;;;6.30;2.97;;;21.50;92.40;;;;;;4975153;28;20050;-57
2022/06/16 09:36:28;;;;;;;5.80;2.67;;;21.50;89.80;;;;;;4981845;28;20046;-58
2022/06/16 09:38:56;;;;;;;3.72;3.05;;;21.70;92.20;;;;;;4983705;28;20044;-57
2022/06/16 09:44:23;;;;;;;5.18;3.08;;;22.10;91.60;;;;;;4985593;28;20172;-58
2022/06/16 09:46:55;;;;;;;5.18;2.78;;;22.10;89.80;;;;;;4980901;28;20050;-58
2022/06/16 09:49:27;;;;;;;5.63;2.95;;;22.20;91.20;;;;;;5000317;28;20037;-57
2022/06/16 09:52:00;;;;;;;5.05;2.85;;;22.30;90.70;;;;;;4991005;28;22479;-57
2022/06/16 09:54:41;;;;;;;6.25;2.80;;;22.40;91.40;;;;;;4965967;28;20746;-58
2022/06/16 09:57:11;;;;;;;8.10;3.17;;;22.50;91.30;;;;;;4991225;28;20460;-59
2022/06/16 09:59:50;;;;;;;6.03;2.80;;;22.40;89.40;;;;;;4987289;28;20065;-58
2022/06/16 10:02:15;;;;;;;4.97;3.47;;;22.40;89.90;;;;;;4978276;28;20050;-58
2022/06/16 10:04:41;;;;;;;4.45;3.05;;;22.50;87.50;;;;;;4968056;28;20061;-58
2022/06/16 10:07:10;;;;;;;5.80;2.92;;;22.50;87.60;;;;;;4978672;28;20037;-58
2022/06/16 10:09:47;;;;;;;7.38;3.13;;;22.60;87.30;;;;;;4984591;28;20045;-57
2022/06/16 10:12:35;;;;;;;4.75;2.55;;;22.70;86.70;;;;;;5002199;28;20046;-56
2022/06/16 10:15:21;;;;;;;3.97;3.13;;;22.90;85.50;;;;;;4987208;28;20263;-58
2022/06/16 10:17:48;;;;;;;6.15;3.30;;;22.90;85.70;;;;;;4988684;28;20496;-58
2022/06/16 10:20:17;;;;;;;7.50;3.00;;;22.80;80.70;;;;;;4972828;28;20124;-56
2022/06/16 10:22:48;;;;;;;4.53;3.15;;;22.40;83.30;;;;;;4996156;28;20443;-58
2022/06/16 10:25:20;;;;;;;5.55;3.40;;;22.50;83.20;;;;;;4989181;28;20054;-58
2022/06/16 10:27:57;;;;;;;4.65;3.10;;;22.70;83.50;;;;;;4986606;28;20046;-57
2022/06/16 10:30:32;;;;;;;5.32;3.30;;;22.60;81.10;;;;;;5001150;28;20052;-58
2022/06/16 10:33:22;;;;;;;8.00;3.30;;;22.80;79.90;;;;;;4999521;28;20042;-58
2022/06/16 10:35:54;;;;;;;5.97;3.47;;;22.90;83.30;;;;;;4996668;28;20555;-58
2022/06/16 10:38:41;;;;;;;4.70;3.15;;;23.20;83.00;;;;;;4985171;28;20089;-58
2022/06/16 10:41:40;;;;;;;5.20;3.30;;;23.20;77.30;;;;;;4967152;28;20160;-58
2022/06/16 10:44:12;;;;;;;4.70;2.90;;;22.50;74.10;;;;;;4978342;28;20046;-58
2022/06/16 10:46:55;;;;;;;4.95;3.30;;;22.70;78.20;;;;;;4989433;28;20535;-57
2022/06/16 10:49:27;;;;;;;5.03;3.10;;;22.90;77.90;;;;;;4983759;28;20049;-58
2022/06/16 10:51:59;;;;;;;6.32;3.00;;;23.10;77.30;;;;;;4989174;28;20080;-58
2022/06/16 10:54:34;;;;;;;6.43;3.05;;;23.20;76.60;;;;;;4993431;28;20069;-58
2022/06/16 10:57:22;;;;;;;4.20;3.10;;;23.30;71.80;;;;;;4996831;28;20073;-58
2022/06/16 10:59:51;;;;;;;5.88;3.20;;;23.40;73.90;;;;;;4995872;28;20046;-58
2022/06/16 11:02:23;;;;;;;5.90;2.88;;;23.30;73.70;;;;;;4992046;28;20404;-57
2022/06/16 11:05:13;;;;;;;9.02;3.03;;;23.50;75.20;;;;;;5010654;28;20065;-58
2022/06/16 11:07:42;;;;;;;7.60;3.17;;;23.60;71.60;;;;;;4980186;28;20061;-58
2022/06/16 11:10:30;;;;;;;8.38;3.03;;;23.70;71.70;;;;;;4982571;28;20050;-58
2022/06/16 11:12:57;;;;;;;6.70;3.22;;;23.70;73.30;;;;;;4983731;28;20470;-59
2022/06/16 11:15:41;;;;;;;8.43;3.45;;;23.40;68.30;;;;;;4982733;28;20038;-59
2022/06/16 11:18:15;;;;;;;6.97;3.08;;;23.20;73.40;;;;;;4988205;28;20054;-59
2022/06/16 11:20:43;;;;;;;4.63;2.90;;;23.60;76.00;;;;;;4995078;28;20428;-59
2022/06/16 11:23:21;;;;;;;5.13;2.50;;;23.80;72.70;;;;;;4991536;28;20295;-58
2022/06/16 11:26:16;;;;;;;5.05;2.85;;;24.10;71.20;;;;;;4995776;28;20493;-58
2022/06/16 11:28:49;;;;;;;6.43;2.92;;;24.20;71.80;;;;;;4992931;28;20559;-58
2022/06/16 11:31:25;;;;;;;5.47;3.00;;;24.30;72.80;;;;;;4990099;28;20715;-59
2022/06/16 11:34:24;;;;;;;8.02;3.15;;;24.30;70.10;;;;;;4998590;28;20050;-60
2022/06/16 11:37:08;;;;;;;3.67;2.28;;;24.30;69.00;;;;;;4992296;28;20061;-58
2022/06/16 11:39:52;;;;;;;5.15;2.70;;;24.50;71.10;;;;;;4995391;28;20045;-60
2022/06/16 11:42:56;;;;;;;;;;;24.50;69.00;;;;;;4994324;28;20038;-59
2022/06/16 11:45:36;;;;;;;6.27;2.87;;;24.30;68.60;;;;;;4935311;28;20416;-60
2022/06/16 11:48:26;;;;;;;6.10;2.60;;;24.40;72.40;;;;;;4937775;28;20145;-60
2022/06/16 11:51:07;;;;;;;5.28;2.72;;;24.40;72.50;;;;;;4979602;28;20058;-59
2022/06/16 11:53:36;;;;;;;7.50;2.83;;;24.30;68.20;;;;;;4980286;28;20678;-60
2022/06/16 11:56:22;;;;;;;4.60;2.75;;;24.00;66.10;;;;;;4995358;28;20124;-60
2022/06/16 11:58:56;;;;;;;4.55;2.25;;;24.20;67.40;;;;;;4966346;28;20097;-59
2022/06/16 12:01:43;;;;;;;4.63;2.80;;;24.30;66.80;;;;;;4990814;28;20045;-59
2022/06/16 12:04:21;;;;;;;6.13;2.55;;;24.30;66.00;;;;;;4992412;28;20103;-59
2022/06/16 12:07:10;;;;;;;4.97;2.30;;;24.50;67.70;;;;;;4986096;28;20042;-59
2022/06/16 12:09:41;;;;;;;5.30;2.50;;;24.80;66.30;;;;;;4992916;28;20038;-59
2022/06/16 12:12:25;;;;;;;4.65;2.30;;;24.80;64.40;;;;;;4978724;28;20050;-59
2022/06/16 12:15:10;;;;;;;5.30;2.45;;;24.60;65.10;;;;;;4987458;28;20448;-61
2022/06/16 12:17:49;;;;;;;4.93;2.20;;;24.90;65.10;;;;;;4970659;28;20049;-62
2022/06/16 12:20:33;;;;;;;4.63;2.00;;;25.10;66.00;;;;;;4984393;28;20139;-60
2022/06/16 12:23:13;;;;;;;4.97;2.30;;;25.40;63.00;;;;;;4978641;23;20116;-63
2022/06/16 12:26:08;;;;;;;5.82;2.22;;;25.40;63.40;;;;;;4936931;28;20533;-63
2022/06/16 12:28:49;;;;;;;9.40;2.97;;;25.40;61.30;;;;;;4953781;28;20047;-64
2022/06/16 12:31:32;;;;;;;5.22;2.58;;;25.20;62.40;;;;;;4937265;28;20076;-63
2022/06/16 12:34:23;;;;;;;4.75;3.17;;;25.30;61.10;;;;;;4937524;28;20490;-64
2022/06/16 12:36:55;;;;;;;4.38;2.33;;;25.40;60.80;;;;;;4937287;28;20356;-63
2022/06/16 12:39:34;;;;;;;4.95;2.10;;;25.50;61.40;;;;;;4946639;28;20521;-64
2022/06/16 12:42:05;;;;;;;5.40;2.00;;;25.40;62.10;;;;;;4921294;28;20042;-63
2022/06/16 12:44:31;;;;;;;7.45;2.47;;;25.60;61.50;;;;;;4937022;28;20062;-63
2022/06/16 12:47:11;;;;;;;6.47;2.35;;;25.50;60.70;;;;;;4955865;28;20061;-64
2022/06/16 12:49:43;;;;;;;4.78;1.90;;;25.60;61.30;;;;;;4952547;28;20086;-63
2022/06/16 12:52:21;;;;;;;3.97;2.10;;;25.50;60.30;;;;;;4949089;28;20702;-63
2022/06/16 12:55:06;;;;;;;4.25;2.00;;;25.60;60.70;;;;;;4937252;28;20621;-63
2022/06/16 12:57:36;;;;;;;4.68;2.75;;;25.70;61.40;;;;;;4953768;28;20145;-62
2022/06/16 13:00:10;;;;;;;7.18;2.42;;;26.00;63.70;;;;;;4954056;28;20239;-63
2022/06/16 13:02:54;;;;;;;;;;;26.30;61.50;;;;;;4948635;28;20265;-62
2022/06/16 13:05:20;;;;;;;6.53;2.30;;;26.40;63.10;;;;;;4948889;28;19930;-61
2022/06/16 13:07:53;;;;;;;5.72;2.45;;;26.30;61.00;;;;;;4953726;28;20045;-62
2022/06/16 13:10:19;;;;;;;3.65;2.30;;;25.90;61.80;;;;;;4951262;28;20047;-63
2022/06/16 13:12:56;;;;;;;5.18;2.20;;;25.90;62.50;;;;;;4955560;28;20402;-62
2022/06/16 13:15:37;;;;;;;8.88;3.28;;;25.70;63.50;;;;;;4938627;28;20047;-62
2022/06/16 13:18:16;;;;;;;6.25;2.70;;;25.80;62.80;;;;;;4956970;28;20450;-64
2022/06/16 13:20:59;;;;;;;4.05;2.45;;;25.80;61.60;;;;;;4953837;28;20055;-62
2022/06/16 13:23:33;;;;;;;4.65;2.55;;;25.90;62.70;;;;;;4943680;28;20416;-63
2022/06/16 13:26:30;;;;;;;5.63;2.65;;;25.40;61.90;;;;;;4940429;28;20512;-63
2022/06/16 13:29:04;;;;;;;4.78;2.40;;;25.30;64.70;;;;;;4963441;28;20043;-62
2022/06/16 13:31:42;;;;;;;6.47;2.53;;;25.70;66.90;;;;;;4967768;28;21570;-64
2022/06/16 13:34:08;;;;;;;4.13;2.55;;;26.00;66.10;;;;;;4950212;28;20494;-63
2022/06/16 13:36:33;;;;;;;4.32;2.70;;;26.10;64.90;;;;;;4949674;28;20146;-62
2022/06/16 13:39:02;;;;;;;4.88;2.53;;;26.30;62.10;;;;;;4948656;28;20049;-63
2022/06/16 13:41:41;;;;;;;5.72;2.35;;;26.30;63.50;;;;;;4945721;28;20055;-62